CheckWX is a tool to help pilots better visualize weather data.  It is not intended as a substitute for an official pre-flight weather briefing.

00:37:02 UTC

BGGH METAR
Godthaab / Nuuk Airport
Nuuk, Greenland
Current

47 mins ago

BGGH 182350Z 17015KT 9999 -DZ FEW005 BKN020 BKN070 04/03 Q1022
Observed
Oct-18 @ 23:50 UTC
Wind
  • 170° at 15 KTS
Visibility
10,000+ meters
Flight Rules
MVFR
Conditions
Light Drizzle
Cloud Levels
  • Few at 500' AGL
  • Broken at 2,000' AGL
  • Broken at 7,000' AGL
Temperature
C / 39°F
Dewpoint
C / 37°F
Humidity
93%
Altimeter
30.18" Hg
Pressure
1021.92 hPa
Previous

2 hours ago

BGGH 182250Z 18017KT 9999 -SHRA SCT020 BKN070 04/03 Q1022
Observed
Oct-18 @ 22:50 UTC
Wind
  • 180° at 17 KTS
Visibility
10,000+ meters
Flight Rules
VFR
Conditions
Light Rain
Cloud Levels
  • Scattered at 2,000' AGL
  • Broken at 7,000' AGL
Temperature
C / 39°F
Dewpoint
C / 37°F
Humidity
93%
Altimeter
30.18" Hg
Pressure
1021.92 hPa
Previous

3 hours ago

BGGH 182150Z 17018KT 9999 -SHRA SCT010 BKN020 OVC040 03/03 Q1022
Observed
Oct-18 @ 21:50 UTC
Wind
  • 170° at 18 KTS
Visibility
10,000+ meters
Flight Rules
MVFR
Conditions
Light Rain
Cloud Levels
  • Scattered at 1,000' AGL
  • Broken at 2,000' AGL
  • Overcast at 4,000' AGL
Temperature
C / 37°F
Dewpoint
C / 37°F
Humidity
100%
Altimeter
30.18" Hg
Pressure
1021.92 hPa